ENGM/OSL METAR and TAF weather

Enter ICAO airport designator
Station Type Date Time Source
ENGM METAR 2018/04/21 11:20 UTC NOAA

ENGM 211120Z 28007KT 220V340 CAVOK 13/M04 Q1013 NOSIG


Station Type Date Time Source
ENGM Decoded METAR 2018/04/21 11:20 UTC NOAA

Oslo / Gardermoen, Norway (ENGM) 60-12N 011-05E 204M
Apr 21, 2018 - 07:20 AM EDT / 2018.04.21 1120 UTC
Wind: from the W (280 degrees) at 8 MPH (7 KT) (direction variable):0
Visibility: greater than 7 mile(s):0
Temperature: 55 F (13 C)
Dew Point: 24 F (-4 C)
Relative Humidity: 30%
Pressure (altimeter): 29.91 in. Hg (1013 hPa)
ob: ENGM 211120Z 28007KT 220V340 CAVOK 13/M04 Q1013 NOSIG
cycle: 11

Station Type Date Time Source
ENGM TAF 2018/04/21 06:57 UTC NOAA

TAF ENGM 210500Z 2106/2206 32008KT CAVOK


Example: see airport list